sensor_id;sensor_type;location;lat;lon;timestamp;temperature;humidity
33761;DHT22;20084;47.912;19.044;2024-01-25T00:01:36;9.10;99.90
33761;DHT22;20084;47.912;19.044;2024-01-25T00:04:01;9.00;99.90
33761;DHT22;20084;47.912;19.044;2024-01-25T00:06:27;9.00;99.90
33761;DHT22;20084;47.912;19.044;2024-01-25T00:08:52;9.00;99.90
33761;DHT22;20084;47.912;19.044;2024-01-25T00:11:18;9.10;99.90
33761;DHT22;20084;47.912;19.044;2024-01-25T00:13:43;9.10;99.90
33761;DHT22;20084;47.912;19.044;2024-01-25T00:16:09;9.10;99.90
33761;DHT22;20084;47.912;19.044;2024-01-25T00:18:35;9.10;99.90
33761;DHT22;20084;47.912;19.044;2024-01-25T00:21:00;9.00;99.90
33761;DHT22;20084;47.912;19.044;2024-01-25T00:23:26;8.90;99.90
33761;DHT22;20084;47.912;19.044;2024-01-25T00:25:52;8.90;99.90
33761;DHT22;20084;47.912;19.044;2024-01-25T00:28:17;8.80;99.90
33761;DHT22;20084;47.912;19.044;2024-01-25T00:30:43;8.80;99.90
33761;DHT22;20084;47.912;19.044;2024-01-25T00:33:08;8.80;99.90
33761;DHT22;20084;47.912;19.044;2024-01-25T00:35:34;8.80;99.90
33761;DHT22;20084;47.912;19.044;2024-01-25T00:38:00;8.80;99.90
33761;DHT22;20084;47.912;19.044;2024-01-25T00:40:26;8.80;99.90
33761;DHT22;20084;47.912;19.044;2024-01-25T00:42:52;8.80;99.90
33761;DHT22;20084;47.912;19.044;2024-01-25T00:45:19;8.80;99.90
33761;DHT22;20084;47.912;19.044;2024-01-25T00:47:45;8.80;99.90
33761;DHT22;20084;47.912;19.044;2024-01-25T00:50:11;8.80;99.90
33761;DHT22;20084;47.912;19.044;2024-01-25T00:52:38;8.70;99.90
33761;DHT22;20084;47.912;19.044;2024-01-25T00:55:04;8.80;99.90
33761;DHT22;20084;47.912;19.044;2024-01-25T00:57:30;8.80;99.90
33761;DHT22;20084;47.912;19.044;2024-01-25T00:59:57;8.80;99.90
33761;DHT22;20084;47.912;19.044;2024-01-25T01:02:23;8.80;99.90
33761;DHT22;20084;47.912;19.044;2024-01-25T01:04:49;8.70;99.90
33761;DHT22;20084;47.912;19.044;2024-01-25T01:07:15;8.70;99.90
33761;DHT22;20084;47.912;19.044;2024-01-25T01:09:41;8.60;99.90
33761;DHT22;20084;47.912;19.044;2024-01-25T01:12:07;8.60;99.90
33761;DHT22;20084;47.912;19.044;2024-01-25T01:14:33;8.50;99.90
33761;DHT22;20084;47.912;19.044;2024-01-25T01:16:58;8.50;99.90
33761;DHT22;20084;47.912;19.044;2024-01-25T01:19:24;8.40;99.90
33761;DHT22;20084;47.912;19.044;2024-01-25T01:21:50;8.40;99.90
33761;DHT22;20084;47.912;19.044;2024-01-25T01:24:15;8.40;99.90
33761;DHT22;20084;47.912;19.044;2024-01-25T01:26:41;8.40;99.90
33761;DHT22;20084;47.912;19.044;2024-01-25T01:29:07;8.30;99.90
33761;DHT22;20084;47.912;19.044;2024-01-25T01:31:33;8.30;99.90
33761;DHT22;20084;47.912;19.044;2024-01-25T01:33:59;8.40;99.90
33761;DHT22;20084;47.912;19.044;2024-01-25T01:36:26;8.40;99.90
33761;DHT22;20084;47.912;19.044;2024-01-25T01:38:51;8.50;99.90
33761;DHT22;20084;47.912;19.044;2024-01-25T01:41:17;8.60;99.90
33761;DHT22;20084;47.912;19.044;2024-01-25T01:45:05;8.70;99.90
33761;DHT22;20084;47.912;19.044;2024-01-25T01:47:30;8.80;99.90
33761;DHT22;20084;47.912;19.044;2024-01-25T01:49:56;8.80;99.90
33761;DHT22;20084;47.912;19.044;2024-01-25T01:52:22;8.80;99.90
33761;DHT22;20084;47.912;19.044;2024-01-25T01:54:48;8.90;99.90
33761;DHT22;20084;47.912;19.044;2024-01-25T01:57:14;8.90;99.90
33761;DHT22;20084;47.912;19.044;2024-01-25T01:59:40;8.80;99.90
33761;DHT22;20084;47.912;19.044;2024-01-25T02:02:06;8.90;99.90
33761;DHT22;20084;47.912;19.044;2024-01-25T02:04:32;8.80;99.90
33761;DHT22;20084;47.912;19.044;2024-01-25T02:06:58;8.80;99.90
33761;DHT22;20084;47.912;19.044;2024-01-25T02:09:23;8.80;99.90
33761;DHT22;20084;47.912;19.044;2024-01-25T02:11:59;8.80;99.90
33761;DHT22;20084;47.912;19.044;2024-01-25T02:14:25;8.80;99.90
33761;DHT22;20084;47.912;19.044;2024-01-25T02:16:51;8.80;99.90
33761;DHT22;20084;47.912;19.044;2024-01-25T02:19:16;8.80;99.90
33761;DHT22;20084;47.912;19.044;2024-01-25T02:21:42;8.90;99.90
33761;DHT22;20084;47.912;19.044;2024-01-25T02:24:07;8.90;99.90
33761;DHT22;20084;47.912;19.044;2024-01-25T02:26:34;8.90;99.90
33761;DHT22;20084;47.912;19.044;2024-01-25T02:29:00;8.80;99.90
33761;DHT22;20084;47.912;19.044;2024-01-25T02:31:26;8.80;99.90
33761;DHT22;20084;47.912;19.044;2024-01-25T02:33:51;8.80;99.90
33761;DHT22;20084;47.912;19.044;2024-01-25T02:36:17;8.80;99.90
33761;DHT22;20084;47.912;19.044;2024-01-25T02:38:42;8.70;99.90
33761;DHT22;20084;47.912;19.044;2024-01-25T02:41:08;8.70;99.90
33761;DHT22;20084;47.912;19.044;2024-01-25T02:43:33;8.60;99.90
33761;DHT22;20084;47.912;19.044;2024-01-25T02:45:59;8.60;99.90
33761;DHT22;20084;47.912;19.044;2024-01-25T02:48:25;8.70;99.90
33761;DHT22;20084;47.912;19.044;2024-01-25T02:50:51;8.60;99.90
33761;DHT22;20084;47.912;19.044;2024-01-25T02:53:16;8.70;99.90
33761;DHT22;20084;47.912;19.044;2024-01-25T02:55:42;8.60;99.90
33761;DHT22;20084;47.912;19.044;2024-01-25T02:58:08;8.60;99.90
33761;DHT22;20084;47.912;19.044;2024-01-25T03:00:33;8.60;99.90
33761;DHT22;20084;47.912;19.044;2024-01-25T03:02:59;8.50;99.90
33761;DHT22;20084;47.912;19.044;2024-01-25T03:05:24;8.50;99.90
33761;DHT22;20084;47.912;19.044;2024-01-25T03:07:50;8.50;99.90
33761;DHT22;20084;47.912;19.044;2024-01-25T03:10:16;8.60;99.90
33761;DHT22;20084;47.912;19.044;2024-01-25T03:12:41;8.60;99.90
33761;DHT22;20084;47.912;19.044;2024-01-25T03:15:08;8.60;99.90
33761;DHT22;20084;47.912;19.044;2024-01-25T03:17:34;8.60;99.90
33761;DHT22;20084;47.912;19.044;2024-01-25T03:20:00;8.70;99.90
33761;DHT22;20084;47.912;19.044;2024-01-25T03:22:25;8.70;99.90
33761;DHT22;20084;47.912;19.044;2024-01-25T03:24:51;8.80;99.90
33761;DHT22;20084;47.912;19.044;2024-01-25T03:27:17;8.70;99.90
33761;DHT22;20084;47.912;19.044;2024-01-25T03:29:43;8.70;99.90
33761;DHT22;20084;47.912;19.044;2024-01-25T03:32:09;8.60;99.90
33761;DHT22;20084;47.912;19.044;2024-01-25T03:34:35;8.60;99.90
33761;DHT22;20084;47.912;19.044;2024-01-25T03:37:01;8.60;99.90
33761;DHT22;20084;47.912;19.044;2024-01-25T03:39:26;8.60;99.90
33761;DHT22;20084;47.912;19.044;2024-01-25T03:41:52;8.50;99.90
33761;DHT22;20084;47.912;19.044;2024-01-25T03:44:17;8.50;99.90
33761;DHT22;20084;47.912;19.044;2024-01-25T03:46:43;8.50;99.90
33761;DHT22;20084;47.912;19.044;2024-01-25T03:49:08;8.50;99.90
33761;DHT22;20084;47.912;19.044;2024-01-25T03:51:34;8.50;99.90
33761;DHT22;20084;47.912;19.044;2024-01-25T03:54:00;8.50;99.90
33761;DHT22;20084;47.912;19.044;2024-01-25T03:56:25;8.50;99.90
33761;DHT22;20084;47.912;19.044;2024-01-25T03:58:52;8.50;99.90
33761;DHT22;20084;47.912;19.044;2024-01-25T04:01:18;8.50;99.90
33761;DHT22;20084;47.912;19.044;2024-01-25T04:03:43;8.50;99.90
33761;DHT22;20084;47.912;19.044;2024-01-25T04:06:09;8.50;99.90
33761;DHT22;20084;47.912;19.044;2024-01-25T04:08:34;8.40;99.90
33761;DHT22;20084;47.912;19.044;2024-01-25T04:11:00;8.40;99.90
33761;DHT22;20084;47.912;19.044;2024-01-25T04:13:26;8.40;99.90
33761;DHT22;20084;47.912;19.044;2024-01-25T04:15:51;8.40;99.90
33761;DHT22;20084;47.912;19.044;2024-01-25T04:18:17;8.30;99.90
33761;DHT22;20084;47.912;19.044;2024-01-25T04:20:44;8.40;99.90
33761;DHT22;20084;47.912;19.044;2024-01-25T04:23:09;8.40;99.90
33761;DHT22;20084;47.912;19.044;2024-01-25T04:25:35;8.30;99.90
33761;DHT22;20084;47.912;19.044;2024-01-25T04:28:01;8.30;99.90
33761;DHT22;20084;47.912;19.044;2024-01-25T04:30:27;8.30;99.90
33761;DHT22;20084;47.912;19.044;2024-01-25T04:32:52;8.30;99.90
33761;DHT22;20084;47.912;19.044;2024-01-25T04:35:18;8.30;99.90
33761;DHT22;20084;47.912;19.044;2024-01-25T04:37:44;8.30;99.90
33761;DHT22;20084;47.912;19.044;2024-01-25T04:40:09;8.20;99.90
33761;DHT22;20084;47.912;19.044;2024-01-25T04:42:35;8.20;99.90
33761;DHT22;20084;47.912;19.044;2024-01-25T04:45:01;8.30;99.90
33761;DHT22;20084;47.912;19.044;2024-01-25T04:47:26;8.30;99.90
33761;DHT22;20084;47.912;19.044;2024-01-25T04:49:52;8.20;99.90
33761;DHT22;20084;47.912;19.044;2024-01-25T04:52:17;8.20;99.90
33761;DHT22;20084;47.912;19.044;2024-01-25T04:54:43;8.20;99.90
33761;DHT22;20084;47.912;19.044;2024-01-25T04:57:08;8.20;99.90
33761;DHT22;20084;47.912;19.044;2024-01-25T05:02:04;8.10;99.90
33761;DHT22;20084;47.912;19.044;2024-01-25T05:04:29;8.10;99.90
33761;DHT22;20084;47.912;19.044;2024-01-25T05:06:57;8.10;99.90
33761;DHT22;20084;47.912;19.044;2024-01-25T05:09:22;8.10;99.90
33761;DHT22;20084;47.912;19.044;2024-01-25T05:11:48;8.10;99.90
33761;DHT22;20084;47.912;19.044;2024-01-25T05:14:13;8.10;99.90
33761;DHT22;20084;47.912;19.044;2024-01-25T05:16:39;8.20;99.90
33761;DHT22;20084;47.912;19.044;2024-01-25T05:19:05;8.20;99.90
33761;DHT22;20084;47.912;19.044;2024-01-25T05:21:31;8.20;99.90
33761;DHT22;20084;47.912;19.044;2024-01-25T05:23:57;8.20;99.90
33761;DHT22;20084;47.912;19.044;2024-01-25T05:26:22;8.20;99.90
33761;DHT22;20084;47.912;19.044;2024-01-25T05:28:48;8.20;99.90
33761;DHT22;20084;47.912;19.044;2024-01-25T05:31:14;8.20;99.90
33761;DHT22;20084;47.912;19.044;2024-01-25T05:34:42;8.30;99.90
33761;DHT22;20084;47.912;19.044;2024-01-25T05:37:08;8.30;99.90
33761;DHT22;20084;47.912;19.044;2024-01-25T05:39:33;8.30;99.90
33761;DHT22;20084;47.912;19.044;2024-01-25T05:41:59;8.30;99.90
33761;DHT22;20084;47.912;19.044;2024-01-25T05:44:25;8.20;99.90
33761;DHT22;20084;47.912;19.044;2024-01-25T05:46:51;8.20;99.90
33761;DHT22;20084;47.912;19.044;2024-01-25T05:49:16;8.30;99.90
33761;DHT22;20084;47.912;19.044;2024-01-25T05:51:42;8.20;99.90
33761;DHT22;20084;47.912;19.044;2024-01-25T05:54:07;8.20;99.90
33761;DHT22;20084;47.912;19.044;2024-01-25T05:56:33;8.20;99.90
33761;DHT22;20084;47.912;19.044;2024-01-25T05:58:58;8.20;99.90
33761;DHT22;20084;47.912;19.044;2024-01-25T06:01:24;8.20;99.90
33761;DHT22;20084;47.912;19.044;2024-01-25T06:03:50;8.20;99.90
33761;DHT22;20084;47.912;19.044;2024-01-25T06:06:15;8.20;99.90
33761;DHT22;20084;47.912;19.044;2024-01-25T06:08:41;8.20;99.90
33761;DHT22;20084;47.912;19.044;2024-01-25T06:11:07;8.20;99.90
33761;DHT22;20084;47.912;19.044;2024-01-25T06:13:34;8.20;99.90
33761;DHT22;20084;47.912;19.044;2024-01-25T06:15:59;8.10;99.90
33761;DHT22;20084;47.912;19.044;2024-01-25T06:18:26;8.10;99.90
33761;DHT22;20084;47.912;19.044;2024-01-25T06:20:51;8.10;99.90
33761;DHT22;20084;47.912;19.044;2024-01-25T06:23:17;8.00;99.90
33761;DHT22;20084;47.912;19.044;2024-01-25T06:25:43;8.00;99.90
33761;DHT22;20084;47.912;19.044;2024-01-25T06:28:08;8.00;99.90
33761;DHT22;20084;47.912;19.044;2024-01-25T06:30:34;8.00;99.90
33761;DHT22;20084;47.912;19.044;2024-01-25T06:33:00;8.00;99.90
33761;DHT22;20084;47.912;19.044;2024-01-25T06:35:25;8.00;99.90
33761;DHT22;20084;47.912;19.044;2024-01-25T06:37:51;8.00;99.90
33761;DHT22;20084;47.912;19.044;2024-01-25T06:40:16;8.00;99.90
33761;DHT22;20084;47.912;19.044;2024-01-25T06:42:42;8.10;99.90
33761;DHT22;20084;47.912;19.044;2024-01-25T06:45:08;8.00;99.90
33761;DHT22;20084;47.912;19.044;2024-01-25T06:47:34;8.00;99.90
33761;DHT22;20084;47.912;19.044;2024-01-25T06:50:00;8.00;99.90
33761;DHT22;20084;47.912;19.044;2024-01-25T06:52:26;8.00;99.90
33761;DHT22;20084;47.912;19.044;2024-01-25T06:54:52;8.00;99.90
33761;DHT22;20084;47.912;19.044;2024-01-25T06:57:17;8.10;99.90
33761;DHT22;20084;47.912;19.044;2024-01-25T06:59:43;8.10;99.90
33761;DHT22;20084;47.912;19.044;2024-01-25T07:02:08;8.10;99.90
33761;DHT22;20084;47.912;19.044;2024-01-25T07:04:34;8.10;99.90
33761;DHT22;20084;47.912;19.044;2024-01-25T07:07:00;8.00;99.90
33761;DHT22;20084;47.912;19.044;2024-01-25T07:09:26;8.10;99.90
33761;DHT22;20084;47.912;19.044;2024-01-25T07:11:51;8.10;99.90
33761;DHT22;20084;47.912;19.044;2024-01-25T07:14:17;8.10;99.90
33761;DHT22;20084;47.912;19.044;2024-01-25T07:16:42;8.10;99.90
33761;DHT22;20084;47.912;19.044;2024-01-25T07:19:08;8.10;99.90
33761;DHT22;20084;47.912;19.044;2024-01-25T10:10:12;9.10;99.90
33761;DHT22;20084;47.912;19.044;2024-01-25T10:12:41;9.10;99.90
33761;DHT22;20084;47.912;19.044;2024-01-25T10:15:07;9.20;99.90
33761;DHT22;20084;47.912;19.044;2024-01-25T10:17:33;9.10;99.90
33761;DHT22;20084;47.912;19.044;2024-01-25T10:19:58;9.20;99.90
33761;DHT22;20084;47.912;19.044;2024-01-25T10:22:27;9.20;99.90
33761;DHT22;20084;47.912;19.044;2024-01-25T10:24:52;9.20;99.90
33761;DHT22;20084;47.912;19.044;2024-01-25T10:27:21;9.10;99.90
33761;DHT22;20084;47.912;19.044;2024-01-25T10:29:48;9.20;99.90
33761;DHT22;20084;47.912;19.044;2024-01-25T10:32:14;9.20;99.90
33761;DHT22;20084;47.912;19.044;2024-01-25T10:34:41;9.20;99.90
33761;DHT22;20084;47.912;19.044;2024-01-25T10:37:08;9.20;99.90
33761;DHT22;20084;47.912;19.044;2024-01-25T10:39:34;9.30;99.90
33761;DHT22;20084;47.912;19.044;2024-01-25T10:42:00;9.30;99.90
33761;DHT22;20084;47.912;19.044;2024-01-25T10:44:26;9.20;99.90
33761;DHT22;20084;47.912;19.044;2024-01-25T10:46:52;9.10;99.90
33761;DHT22;20084;47.912;19.044;2024-01-25T10:49:20;9.10;99.90
33761;DHT22;20084;47.912;19.044;2024-01-25T10:51:46;9.10;99.90
33761;DHT22;20084;47.912;19.044;2024-01-25T10:54:12;9.10;99.90
33761;DHT22;20084;47.912;19.044;2024-01-25T10:56:42;9.10;99.90
33761;DHT22;20084;47.912;19.044;2024-01-25T10:59:10;9.10;99.90
33761;DHT22;20084;47.912;19.044;2024-01-25T11:01:36;9.10;99.90
33761;DHT22;20084;47.912;19.044;2024-01-25T11:04:01;9.10;99.90
33761;DHT22;20084;47.912;19.044;2024-01-25T11:06:28;9.10;99.90
33761;DHT22;20084;47.912;19.044;2024-01-25T11:09:06;9.10;99.90
33761;DHT22;20084;47.912;19.044;2024-01-25T11:11:32;9.10;99.90
33761;DHT22;20084;47.912;19.044;2024-01-25T11:13:58;9.10;99.90
33761;DHT22;20084;47.912;19.044;2024-01-25T11:16:29;9.10;99.90
33761;DHT22;20084;47.912;19.044;2024-01-25T11:18:56;9.10;99.90
33761;DHT22;20084;47.912;19.044;2024-01-25T11:21:50;9.10;99.90
33761;DHT22;20084;47.912;19.044;2024-01-25T11:26:45;9.10;99.90
33761;DHT22;20084;47.912;19.044;2024-01-25T11:29:18;9.10;99.90
33761;DHT22;20084;47.912;19.044;2024-01-25T11:31:47;9.10;99.90
33761;DHT22;20084;47.912;19.044;2024-01-25T11:34:14;9.20;99.90
33761;DHT22;20084;47.912;19.044;2024-01-25T11:36:43;9.20;99.90
33761;DHT22;20084;47.912;19.044;2024-01-25T11:39:10;9.30;99.90
33761;DHT22;20084;47.912;19.044;2024-01-25T11:41:36;9.30;99.90
33761;DHT22;20084;47.912;19.044;2024-01-25T11:44:02;9.30;99.90
33761;DHT22;20084;47.912;19.044;2024-01-25T11:46:30;9.40;99.90
33761;DHT22;20084;47.912;19.044;2024-01-25T11:48:55;9.40;99.90
33761;DHT22;20084;47.912;19.044;2024-01-25T11:51:22;9.30;99.90
33761;DHT22;20084;47.912;19.044;2024-01-25T11:53:47;9.30;99.90
33761;DHT22;20084;47.912;19.044;2024-01-25T11:56:18;9.30;99.90
33761;DHT22;20084;47.912;19.044;2024-01-25T11:58:45;9.30;99.90
33761;DHT22;20084;47.912;19.044;2024-01-25T12:01:12;9.30;99.90
33761;DHT22;20084;47.912;19.044;2024-01-25T12:03:40;9.30;99.90
33761;DHT22;20084;47.912;19.044;2024-01-25T12:06:06;9.40;99.90
33761;DHT22;20084;47.912;19.044;2024-01-25T12:08:35;9.30;99.90
33761;DHT22;20084;47.912;19.044;2024-01-25T12:11:08;9.30;99.90
33761;DHT22;20084;47.912;19.044;2024-01-25T12:13:35;9.30;99.90
33761;DHT22;20084;47.912;19.044;2024-01-25T12:16:02;9.30;99.90
33761;DHT22;20084;47.912;19.044;2024-01-25T12:18:29;9.30;99.90
33761;DHT22;20084;47.912;19.044;2024-01-25T12:20:58;9.20;99.90
33761;DHT22;20084;47.912;19.044;2024-01-25T12:23:30;9.20;99.90
33761;DHT22;20084;47.912;19.044;2024-01-25T12:25:59;9.20;99.90
33761;DHT22;20084;47.912;19.044;2024-01-25T12:28:27;9.20;99.90
33761;DHT22;20084;47.912;19.044;2024-01-25T12:30:53;9.20;99.90
33761;DHT22;20084;47.912;19.044;2024-01-25T12:33:19;9.20;99.90
33761;DHT22;20084;47.912;19.044;2024-01-25T12:35:44;9.20;99.90
33761;DHT22;20084;47.912;19.044;2024-01-25T12:38:10;9.20;99.90
33761;DHT22;20084;47.912;19.044;2024-01-25T12:40:36;9.10;99.90
33761;DHT22;20084;47.912;19.044;2024-01-25T12:43:01;9.10;99.90
33761;DHT22;20084;47.912;19.044;2024-01-25T12:45:27;9.10;99.90
33761;DHT22;20084;47.912;19.044;2024-01-25T12:47:52;9.10;99.90
33761;DHT22;20084;47.912;19.044;2024-01-25T12:50:18;9.10;99.90
33761;DHT22;20084;47.912;19.044;2024-01-25T12:52:56;9.10;99.90
33761;DHT22;20084;47.912;19.044;2024-01-25T12:55:22;9.10;99.90
33761;DHT22;20084;47.912;19.044;2024-01-25T12:57:47;9.10;99.90
33761;DHT22;20084;47.912;19.044;2024-01-25T13:00:13;9.10;99.90
33761;DHT22;20084;47.912;19.044;2024-01-25T13:02:39;9.10;99.90
33761;DHT22;20084;47.912;19.044;2024-01-25T13:05:05;9.10;99.90
33761;DHT22;20084;47.912;19.044;2024-01-25T13:07:30;9.10;99.90
33761;DHT22;20084;47.912;19.044;2024-01-25T13:09:56;9.10;99.90
33761;DHT22;20084;47.912;19.044;2024-01-25T13:12:21;9.20;99.90
33761;DHT22;20084;47.912;19.044;2024-01-25T13:14:47;9.20;99.90
33761;DHT22;20084;47.912;19.044;2024-01-25T13:17:12;9.20;99.90
33761;DHT22;20084;47.912;19.044;2024-01-25T13:20:01;9.10;99.90
33761;DHT22;20084;47.912;19.044;2024-01-25T13:22:34;9.20;99.90
33761;DHT22;20084;47.912;19.044;2024-01-25T13:25:01;9.20;99.90
33761;DHT22;20084;47.912;19.044;2024-01-25T13:27:28;9.20;99.90
33761;DHT22;20084;47.912;19.044;2024-01-25T13:29:54;9.20;99.90
33761;DHT22;20084;47.912;19.044;2024-01-25T13:32:20;9.20;99.90
33761;DHT22;20084;47.912;19.044;2024-01-25T13:34:45;9.30;99.90
33761;DHT22;20084;47.912;19.044;2024-01-25T13:37:11;9.30;99.90
33761;DHT22;20084;47.912;19.044;2024-01-25T13:39:37;9.30;99.90
33761;DHT22;20084;47.912;19.044;2024-01-25T13:42:02;9.40;99.90
33761;DHT22;20084;47.912;19.044;2024-01-25T13:44:28;9.40;99.90
33761;DHT22;20084;47.912;19.044;2024-01-25T13:46:54;9.40;99.90
33761;DHT22;20084;47.912;19.044;2024-01-25T13:49:21;9.40;99.90
33761;DHT22;20084;47.912;19.044;2024-01-25T13:51:47;9.50;99.90
33761;DHT22;20084;47.912;19.044;2024-01-25T13:54:12;9.70;99.90
33761;DHT22;20084;47.912;19.044;2024-01-25T13:56:38;10.60;99.90
33761;DHT22;20084;47.912;19.044;2024-01-25T13:59:05;11.60;98.10
33761;DHT22;20084;47.912;19.044;2024-01-25T14:01:31;12.00;97.70
33761;DHT22;20084;47.912;19.044;2024-01-25T14:03:57;12.80;95.90
33761;DHT22;20084;47.912;19.044;2024-01-25T14:06:22;13.60;93.10
33761;DHT22;20084;47.912;19.044;2024-01-25T14:08:48;14.10;92.10
33761;DHT22;20084;47.912;19.044;2024-01-25T14:11:14;14.80;88.10
33761;DHT22;20084;47.912;19.044;2024-01-25T14:13:40;15.10;85.20
33761;DHT22;20084;47.912;19.044;2024-01-25T14:16:05;15.40;81.30
33761;DHT22;20084;47.912;19.044;2024-01-25T14:18:36;15.10;81.90
33761;DHT22;20084;47.912;19.044;2024-01-25T14:21:03;15.60;80.20
33761;DHT22;20084;47.912;19.044;2024-01-25T14:23:29;15.40;77.60
33761;DHT22;20084;47.912;19.044;2024-01-25T14:25:55;14.00;80.40
33761;DHT22;20084;47.912;19.044;2024-01-25T14:28:20;12.80;84.90
33761;DHT22;20084;47.912;19.044;2024-01-25T14:30:46;11.90;88.50
33761;DHT22;20084;47.912;19.044;2024-01-25T14:33:13;11.10;91.00
33761;DHT22;20084;47.912;19.044;2024-01-25T14:35:39;10.50;92.20
33761;DHT22;20084;47.912;19.044;2024-01-25T14:38:04;10.10;93.50
33761;DHT22;20084;47.912;19.044;2024-01-25T14:40:30;9.80;93.90
33761;DHT22;20084;47.912;19.044;2024-01-25T14:42:56;9.60;94.40
33761;DHT22;20084;47.912;19.044;2024-01-25T14:45:22;9.30;94.90
33761;DHT22;20084;47.912;19.044;2024-01-25T14:47:48;9.20;96.10
33761;DHT22;20084;47.912;19.044;2024-01-25T14:50:13;9.10;96.60
33761;DHT22;20084;47.912;19.044;2024-01-25T14:52:39;9.00;97.10
33761;DHT22;20084;47.912;19.044;2024-01-25T14:55:05;8.90;97.40
33761;DHT22;20084;47.912;19.044;2024-01-25T14:57:30;8.80;98.00
33761;DHT22;20084;47.912;19.044;2024-01-25T14:59:56;8.80;98.10
33761;DHT22;20084;47.912;19.044;2024-01-25T15:02:22;8.70;98.20
33761;DHT22;20084;47.912;19.044;2024-01-25T15:04:48;8.70;98.50
33761;DHT22;20084;47.912;19.044;2024-01-25T15:07:13;8.70;98.80
33761;DHT22;20084;47.912;19.044;2024-01-25T15:09:40;8.60;99.30
33761;DHT22;20084;47.912;19.044;2024-01-25T15:12:07;8.60;99.30
33761;DHT22;20084;47.912;19.044;2024-01-25T15:14:33;8.60;99.20
33761;DHT22;20084;47.912;19.044;2024-01-25T15:16:59;8.50;99.30
33761;DHT22;20084;47.912;19.044;2024-01-25T15:19:24;8.50;99.80
33761;DHT22;20084;47.912;19.044;2024-01-25T15:21:50;8.50;99.90
33761;DHT22;20084;47.912;19.044;2024-01-25T15:24:15;8.40;99.90
33761;DHT22;20084;47.912;19.044;2024-01-25T15:26:41;8.50;99.90
33761;DHT22;20084;47.912;19.044;2024-01-25T15:29:07;8.40;99.90
33761;DHT22;20084;47.912;19.044;2024-01-25T15:31:33;8.40;99.90
33761;DHT22;20084;47.912;19.044;2024-01-25T15:33:58;8.40;99.90
33761;DHT22;20084;47.912;19.044;2024-01-25T15:36:24;8.30;99.90
33761;DHT22;20084;47.912;19.044;2024-01-25T15:38:50;8.30;99.90
33761;DHT22;20084;47.912;19.044;2024-01-25T15:41:16;8.20;99.90
33761;DHT22;20084;47.912;19.044;2024-01-25T15:43:44;8.20;99.90
33761;DHT22;20084;47.912;19.044;2024-01-25T15:46:09;8.20;99.90
33761;DHT22;20084;47.912;19.044;2024-01-25T15:48:36;8.20;99.90
33761;DHT22;20084;47.912;19.044;2024-01-25T15:51:01;8.20;99.90
33761;DHT22;20084;47.912;19.044;2024-01-25T15:53:27;8.10;99.90
33761;DHT22;20084;47.912;19.044;2024-01-25T15:55:52;8.10;99.90
33761;DHT22;20084;47.912;19.044;2024-01-25T15:58:18;8.10;99.90
33761;DHT22;20084;47.912;19.044;2024-01-25T16:00:43;8.10;99.90
33761;DHT22;20084;47.912;19.044;2024-01-25T16:03:09;8.10;99.90
33761;DHT22;20084;47.912;19.044;2024-01-25T16:05:35;8.10;99.90
33761;DHT22;20084;47.912;19.044;2024-01-25T16:08:01;8.10;99.90
33761;DHT22;20084;47.912;19.044;2024-01-25T16:10:27;8.00;99.90
33761;DHT22;20084;47.912;19.044;2024-01-25T16:12:53;8.00;99.90
33761;DHT22;20084;47.912;19.044;2024-01-25T16:15:19;8.00;99.90
33761;DHT22;20084;47.912;19.044;2024-01-25T16:17:44;8.00;99.90
33761;DHT22;20084;47.912;19.044;2024-01-25T16:20:10;8.00;99.90
33761;DHT22;20084;47.912;19.044;2024-01-25T16:22:36;7.90;99.90
33761;DHT22;20084;47.912;19.044;2024-01-25T16:25:03;7.90;99.90
33761;DHT22;20084;47.912;19.044;2024-01-25T16:27:29;8.00;99.90
33761;DHT22;20084;47.912;19.044;2024-01-25T16:29:55;8.00;99.90
33761;DHT22;20084;47.912;19.044;2024-01-25T16:32:20;7.90;99.90
33761;DHT22;20084;47.912;19.044;2024-01-25T16:34:46;7.90;99.90
33761;DHT22;20084;47.912;19.044;2024-01-25T16:37:12;7.90;99.90
33761;DHT22;20084;47.912;19.044;2024-01-25T16:39:38;8.00;99.90
33761;DHT22;20084;47.912;19.044;2024-01-25T16:42:04;7.90;99.90
33761;DHT22;20084;47.912;19.044;2024-01-25T16:44:30;7.90;99.90
33761;DHT22;20084;47.912;19.044;2024-01-25T16:46:55;7.90;99.90
33761;DHT22;20084;47.912;19.044;2024-01-25T16:49:22;7.90;99.90
33761;DHT22;20084;47.912;19.044;2024-01-25T16:51:47;7.90;99.90
33761;DHT22;20084;47.912;19.044;2024-01-25T16:54:13;7.90;99.90
33761;DHT22;20084;47.912;19.044;2024-01-25T16:56:38;7.90;99.90
33761;DHT22;20084;47.912;19.044;2024-01-25T16:59:04;7.90;99.90
33761;DHT22;20084;47.912;19.044;2024-01-25T17:01:30;7.90;99.90
33761;DHT22;20084;47.912;19.044;2024-01-25T17:03:55;7.90;99.90
33761;DHT22;20084;47.912;19.044;2024-01-25T17:06:21;7.90;99.90
33761;DHT22;20084;47.912;19.044;2024-01-25T17:08:47;7.90;99.90
33761;DHT22;20084;47.912;19.044;2024-01-25T17:11:13;7.80;99.90
33761;DHT22;20084;47.912;19.044;2024-01-25T17:13:38;7.80;99.90
33761;DHT22;20084;47.912;19.044;2024-01-25T17:16:04;7.80;99.90
33761;DHT22;20084;47.912;19.044;2024-01-25T17:18:30;7.80;99.90
33761;DHT22;20084;47.912;19.044;2024-01-25T17:20:56;7.80;99.90
33761;DHT22;20084;47.912;19.044;2024-01-25T17:23:22;7.80;99.90
33761;DHT22;20084;47.912;19.044;2024-01-25T17:25:47;7.80;99.90
33761;DHT22;20084;47.912;19.044;2024-01-25T17:28:13;7.80;99.90
33761;DHT22;20084;47.912;19.044;2024-01-25T17:30:39;7.70;99.90
33761;DHT22;20084;47.912;19.044;2024-01-25T17:33:05;7.70;99.90
33761;DHT22;20084;47.912;19.044;2024-01-25T17:35:30;7.80;99.90
33761;DHT22;20084;47.912;19.044;2024-01-25T17:37:56;7.80;99.90
33761;DHT22;20084;47.912;19.044;2024-01-25T17:40:22;7.70;99.90
33761;DHT22;20084;47.912;19.044;2024-01-25T17:42:49;7.70;99.90
33761;DHT22;20084;47.912;19.044;2024-01-25T17:45:15;7.70;99.90
33761;DHT22;20084;47.912;19.044;2024-01-25T17:47:40;7.80;99.90
33761;DHT22;20084;47.912;19.044;2024-01-25T17:50:06;7.70;99.90
33761;DHT22;20084;47.912;19.044;2024-01-25T17:52:32;7.70;99.90
33761;DHT22;20084;47.912;19.044;2024-01-25T17:54:57;7.80;99.90
33761;DHT22;20084;47.912;19.044;2024-01-25T17:57:23;7.70;99.90
33761;DHT22;20084;47.912;19.044;2024-01-25T17:59:48;7.70;99.90
33761;DHT22;20084;47.912;19.044;2024-01-25T18:02:14;7.70;99.90
33761;DHT22;20084;47.912;19.044;2024-01-25T18:04:40;7.70;99.90
33761;DHT22;20084;47.912;19.044;2024-01-25T18:07:06;7.70;99.90
33761;DHT22;20084;47.912;19.044;2024-01-25T18:09:31;7.70;99.90
33761;DHT22;20084;47.912;19.044;2024-01-25T18:11:57;7.70;99.90
33761;DHT22;20084;47.912;19.044;2024-01-25T18:14:23;7.70;99.90
33761;DHT22;20084;47.912;19.044;2024-01-25T18:16:48;7.70;99.90
33761;DHT22;20084;47.912;19.044;2024-01-25T18:19:14;7.70;99.90